Time;durP1;ratioP1;P1;durP2;ratioP2;P2;SDS_P1;SDS_P2;PMS_P1;PMS_P2;Temp;Humidity;BMP_temperature;BMP_pressure;BME280_temperature;BME280_humidity;BME280_pressure;Samples;Min_cycle;Max_cycle;Signal;HPM_P1;HPM_P2
2022/04/18 00:01:48;;;;;;;17.33;7.18;;;;;;;;;;4978228;28;20068;-65
2022/04/18 00:04:17;;;;;;;14.75;6.90;;;;;;;;;;4983359;28;20119;-66
2022/04/18 00:06:44;;;;;;;14.68;6.25;;;;;;;;;;4986763;28;20058;-65
2022/04/18 00:09:11;;;;;;;17.70;7.28;;;;;;;;;;4992896;28;20062;-58
2022/04/18 00:11:37;;;;;;;16.00;7.72;;;;;;;;;;4985415;28;20127;-57
2022/04/18 00:14:04;;;;;;;17.10;7.63;;;;;;;;;;4991030;28;20172;-61
2022/04/18 00:16:32;;;;;;;14.25;6.40;;;;;;;;;;4986492;28;20061;-63
2022/04/18 00:18:59;;;;;;;14.90;6.18;;;;;;;;;;5008977;28;20049;-57
2022/04/18 00:21:25;;;;;;;12.98;6.50;;;;;;;;;;5010034;28;20053;-58
2022/04/18 00:23:52;;;;;;;14.73;6.32;;;;;;;;;;4986250;28;20046;-59
2022/04/18 00:26:21;;;;;;;13.23;6.65;;;;;;;;;;4990462;28;20054;-58
2022/04/18 00:28:47;;;;;;;11.73;6.55;;;;;;;;;;4984620;28;20058;-66
2022/04/18 00:31:14;;;;;;;17.30;7.18;;;;;;;;;;4989766;28;20085;-66
2022/04/18 00:33:42;;;;;;;12.95;6.32;;;;;;;;;;4997297;28;20060;-57
2022/04/18 00:36:11;;;;;;;15.57;7.07;;;;;;;;;;5010444;28;20107;-59
2022/04/18 00:38:38;;;;;;;11.13;5.55;;;;;;;;;;4992515;28;20107;-58
2022/04/18 00:41:05;;;;;;;17.42;7.22;;;;;;;;;;4990457;28;20050;-58
2022/04/18 00:43:38;;;;;;;15.38;7.28;;;;;;;;;;4994780;28;20090;-58
2022/04/18 00:46:05;;;;;;;16.25;6.97;;;;;;;;;;4990592;28;20050;-61
2022/04/18 00:48:32;;;;;;;16.38;6.85;;;;;;;;;;4984280;28;20065;-61
2022/04/18 00:51:00;;;;;;;13.10;6.13;;;;;;;;;;4990641;28;20077;-59
2022/04/18 00:53:26;;;;;;;14.25;6.88;;;;;;;;;;4988312;28;20045;-63
2022/04/18 00:55:53;;;;;;;14.35;6.32;;;;;;;;;;5010094;28;20538;-63
2022/04/18 00:58:20;;;;;;;12.18;5.85;;;;;;;;;;5002035;28;20062;-58
2022/04/18 01:00:47;;;;;;;13.88;5.75;;;;;;;;;;5006944;28;20116;-60
2022/04/18 01:03:13;;;;;;;15.55;6.55;;;;;;;;;;4990332;28;20054;-64
2022/04/18 01:05:40;;;;;;;14.57;6.70;;;;;;;;;;4984807;28;20108;-64
2022/04/18 01:08:08;;;;;;;12.55;6.20;;;;;;;;;;4990230;28;20050;-58
2022/04/18 01:10:36;;;;;;;13.85;6.63;;;;;;;;;;4970805;28;20117;-63
2022/04/18 01:13:03;;;;;;;16.67;6.77;;;;;;;;;;4975611;28;20050;-62
2022/04/18 01:15:30;;;;;;;13.48;5.75;;;;;;;;;;4984502;28;20046;-58
2022/04/18 01:17:57;;;;;;;17.08;5.78;;;;;;;;;;4995340;28;20113;-60
2022/04/18 01:20:24;;;;;;;15.23;6.00;;;;;;;;;;4972151;28;20259;-63
2022/04/18 01:22:53;;;;;;;14.82;6.20;;;;;;;;;;4994188;28;20053;-58
2022/04/18 01:30:53;;;;;;;13.38;5.63;;;;;;;;;;4983436;28;20061;-61
2022/04/18 01:33:20;;;;;;;12.65;5.82;;;;;;;;;;5011717;28;20049;-58
2022/04/18 01:35:47;;;;;;;11.80;5.97;;;;;;;;;;4982585;28;20081;-58
2022/04/18 01:38:15;;;;;;;14.30;5.70;;;;;;;;;;4995351;28;20046;-55
2022/04/18 01:40:41;;;;;;;13.00;5.65;;;;;;;;;;4989908;28;20042;-58
2022/04/18 01:43:08;;;;;;;14.93;5.90;;;;;;;;;;4985231;28;20050;-58
2022/04/18 01:45:36;;;;;;;12.18;5.10;;;;;;;;;;4974889;28;20076;-59
2022/04/18 01:48:02;;;;;;;11.90;5.53;;;;;;;;;;5009911;28;20050;-57
2022/04/18 01:50:29;;;;;;;10.65;4.80;;;;;;;;;;4988062;28;20128;-60
2022/04/18 01:52:56;;;;;;;10.88;5.35;;;;;;;;;;4992952;28;20085;-57
2022/04/18 01:55:25;;;;;;;13.57;5.40;;;;;;;;;;5005830;28;20058;-59
2022/04/18 01:57:51;;;;;;;14.57;5.63;;;;;;;;;;4981936;28;20077;-60
2022/04/18 02:00:18;;;;;;;11.02;4.95;;;;;;;;;;4988786;28;20061;-61
2022/04/18 02:02:45;;;;;;;13.30;5.30;;;;;;;;;;4985808;28;20082;-60
2022/04/18 02:05:11;;;;;;;13.27;5.20;;;;;;;;;;4986755;28;20062;-66
2022/04/18 02:07:39;;;;;;;12.88;5.70;;;;;;;;;;4972760;28;20069;-61
2022/04/18 02:10:06;;;;;;;11.30;5.20;;;;;;;;;;4992513;28;20169;-64
2022/04/18 02:12:34;;;;;;;17.13;5.63;;;;;;;;;;4995913;28;20057;-59
2022/04/18 02:15:02;;;;;;;13.40;5.45;;;;;;;;;;4993147;28;20057;-57
2022/04/18 02:17:28;;;;;;;10.30;5.10;;;;;;;;;;4988107;28;20113;-65
2022/04/18 02:19:55;;;;;;;13.98;5.50;;;;;;;;;;4993429;28;20069;-58
2022/04/18 02:22:22;;;;;;;11.25;4.72;;;;;;;;;;4987248;28;20100;-61
2022/04/18 02:24:49;;;;;;;9.77;4.85;;;;;;;;;;4991882;28;20050;-61
2022/04/18 02:27:16;;;;;;;13.00;5.38;;;;;;;;;;4987189;28;20056;-60
2022/04/18 02:29:44;;;;;;;14.07;5.50;;;;;;;;;;4992578;28;20049;-58
2022/04/18 02:34:55;;;;;;;9.23;4.72;;;;;;;;;;4992970;28;20145;-56
2022/04/18 02:37:21;;;;;;;11.00;4.80;;;;;;;;;;4987055;28;20053;-63
2022/04/18 02:39:48;;;;;;;11.25;5.28;;;;;;;;;;4992992;28;20061;-65
2022/04/18 02:42:14;;;;;;;10.60;4.70;;;;;;;;;;4985937;28;20069;-60
2022/04/18 02:44:46;;;;;;;11.00;4.63;;;;;;;;;;4992724;28;20045;-61
2022/04/18 02:47:13;;;;;;;10.88;4.72;;;;;;;;;;4993839;28;20058;-60
2022/04/18 02:49:40;;;;;;;12.82;4.63;;;;;;;;;;4986505;28;20167;-58
2022/04/18 02:52:06;;;;;;;10.27;4.57;;;;;;;;;;4992236;28;20053;-60
2022/04/18 02:54:33;;;;;;;11.30;4.70;;;;;;;;;;4972318;28;20069;-60
2022/04/18 02:57:00;;;;;;;12.25;4.38;;;;;;;;;;4992588;28;20058;-60
2022/04/18 02:59:27;;;;;;;9.43;4.53;;;;;;;;;;4986323;28;20104;-59
2022/04/18 03:01:54;;;;;;;13.65;4.45;;;;;;;;;;4992259;28;20061;-57
2022/04/18 03:04:22;;;;;;;9.20;3.83;;;;;;;;;;5000714;28;20056;-62
2022/04/18 03:06:48;;;;;;;8.32;4.13;;;;;;;;;;4987596;28;20080;-57
2022/04/18 03:09:15;;;;;;;11.95;4.18;;;;;;;;;;4986083;28;20158;-60
2022/04/18 03:11:41;;;;;;;11.27;4.57;;;;;;;;;;4992482;28;20139;-64
2022/04/18 03:14:08;;;;;;;9.63;3.90;;;;;;;;;;4986386;28;20127;-64
2022/04/18 03:16:35;;;;;;;9.02;4.25;;;;;;;;;;4994780;28;20061;-62
2022/04/18 03:19:03;;;;;;;9.38;3.88;;;;;;;;;;4988111;28;20054;-64
2022/04/18 03:21:29;;;;;;;7.68;3.60;;;;;;;;;;4991843;28;20053;-60
2022/04/18 03:23:56;;;;;;;9.75;4.18;;;;;;;;;;4986638;28;20057;-57
2022/04/18 03:26:23;;;;;;;8.52;3.60;;;;;;;;;;4989922;28;20069;-65
2022/04/18 03:28:50;;;;;;;7.03;3.22;;;;;;;;;;4980325;28;20054;-65
2022/04/18 03:31:17;;;;;;;7.60;3.45;;;;;;;;;;4964586;28;20061;-57
2022/04/18 03:33:43;;;;;;;10.85;3.88;;;;;;;;;;4971060;28;20078;-66
2022/04/18 03:41:41;;;;;;;8.45;3.28;;;;;;;;;;4985230;28;20058;-63
2022/04/18 03:44:09;;;;;;;8.60;3.72;;;;;;;;;;4991229;28;20126;-65
2022/04/18 03:46:35;;;;;;;8.60;3.53;;;;;;;;;;4971211;28;20113;-66
2022/04/18 03:49:02;;;;;;;10.32;3.88;;;;;;;;;;4991965;28;20058;-63
2022/04/18 03:51:30;;;;;;;8.57;3.65;;;;;;;;;;4986531;28;20054;-66
2022/04/18 03:53:57;;;;;;;8.15;3.60;;;;;;;;;;4991425;28;20054;-62
2022/04/18 03:56:24;;;;;;;10.57;3.80;;;;;;;;;;4984764;28;20058;-58
2022/04/18 03:58:50;;;;;;;8.18;3.60;;;;;;;;;;4990665;28;20050;-62
2022/04/18 04:01:17;;;;;;;9.05;3.58;;;;;;;;;;4980477;28;20129;-59
2022/04/18 04:03:44;;;;;;;7.82;3.25;;;;;;;;;;4990085;28;20050;-64
2022/04/18 04:06:10;;;;;;;8.82;3.45;;;;;;;;;;5003884;28;20057;-59
2022/04/18 04:08:38;;;;;;;8.13;3.70;;;;;;;;;;4991147;28;20058;-61
2022/04/18 04:11:05;;;;;;;5.97;2.90;;;;;;;;;;4987826;28;20054;-55
2022/04/18 04:13:31;;;;;;;10.93;3.70;;;;;;;;;;4990881;28;20069;-60
2022/04/18 04:15:58;;;;;;;8.55;3.80;;;;;;;;;;4983010;28;20061;-56
2022/04/18 04:18:25;;;;;;;8.45;3.40;;;;;;;;;;4992564;28;20060;-60
2022/04/18 04:20:51;;;;;;;5.97;2.95;;;;;;;;;;4991240;28;20053;-60
2022/04/18 04:23:18;;;;;;;10.70;3.90;;;;;;;;;;4987181;28;20045;-59
2022/04/18 04:25:47;;;;;;;7.30;3.22;;;;;;;;;;4990030;28;20061;-58
2022/04/18 04:28:14;;;;;;;7.63;3.28;;;;;;;;;;4984473;28;20148;-55
2022/04/18 04:30:41;;;;;;;10.60;3.67;;;;;;;;;;4987710;28;20056;-58
2022/04/18 04:33:07;;;;;;;8.90;3.63;;;;;;;;;;4983976;28;20054;-60
2022/04/18 04:35:34;;;;;;;7.57;2.80;;;;;;;;;;4989883;28;20054;-65
2022/04/18 04:38:00;;;;;;;8.32;3.17;;;;;;;;;;4983905;28;20053;-60
2022/04/18 04:40:27;;;;;;;10.02;3.60;;;;;;;;;;4992565;28;20123;-56
2022/04/18 04:42:55;;;;;;;8.82;3.70;;;;;;;;;;4987419;28;20066;-59
2022/04/18 04:45:22;;;;;;;6.87;2.97;;;;;;;;;;4988803;28;20062;-62
2022/04/18 04:47:49;;;;;;;8.98;3.22;;;;;;;;;;4989734;28;20358;-61
2022/04/18 04:50:15;;;;;;;8.23;3.28;;;;;;;;;;4996138;28;20073;-61
2022/04/18 04:52:42;;;;;;;9.02;3.70;;;;;;;;;;4988615;28;20054;-60
2022/04/18 04:55:16;;;;;;;7.53;3.10;;;;;;;;;;4998881;28;20156;-61
2022/04/18 04:57:43;;;;;;;9.35;3.80;;;;;;;;;;4989891;28;20061;-53
2022/04/18 05:00:12;;;;;;;8.75;3.05;;;;;;;;;;4992637;28;20081;-56
2022/04/18 05:02:38;;;;;;;;;;;;;;;;;;4988399;28;20046;-58
2022/04/18 05:05:06;;;;;;;6.25;2.38;;;;;;;;;;4990776;28;19929;-57
2022/04/18 05:07:32;;;;;;;7.30;3.45;;;;;;;;;;4993579;28;20093;-55
2022/04/18 05:10:00;;;;;;;11.93;3.35;;;;;;;;;;4988113;28;20042;-56
2022/04/18 05:12:28;;;;;;;8.70;3.42;;;;;;;;;;4994689;28;20061;-57
2022/04/18 05:14:55;;;;;;;8.15;3.17;;;;;;;;;;4973216;28;20066;-54
2022/04/18 05:17:23;;;;;;;7.75;3.22;;;;;;;;;;4979182;28;20106;-57
2022/04/18 05:19:50;;;;;;;9.47;3.73;;;;;;;;;;5000845;28;20053;-54
2022/04/18 05:22:16;;;;;;;8.27;3.50;;;;;;;;;;4990581;28;20399;-58
2022/04/18 05:24:43;;;;;;;6.50;3.13;;;;;;;;;;4985628;28;20057;-60
2022/04/18 05:27:15;;;;;;;8.15;3.47;;;;;;;;;;4990201;28;20133;-58
2022/04/18 05:29:41;;;;;;;8.45;3.65;;;;;;;;;;4998430;28;20128;-60
2022/04/18 05:32:08;;;;;;;9.48;3.45;;;;;;;;;;5005314;28;20054;-53
2022/04/18 05:34:36;;;;;;;9.00;3.15;;;;;;;;;;4999512;28;20065;-58
2022/04/18 05:37:03;;;;;;;8.48;3.20;;;;;;;;;;4990087;28;20058;-60
2022/04/18 05:39:30;;;;;;;6.55;2.90;;;;;;;;;;4983202;28;20052;-58
2022/04/18 05:41:57;;;;;;;10.50;3.20;;;;;;;;;;4990081;28;20061;-56
2022/04/18 05:44:24;;;;;;;6.85;2.85;;;;;;;;;;4984169;28;20058;-57
2022/04/18 05:46:50;;;;;;;6.18;2.95;;;;;;;;;;4987088;28;20060;-57
2022/04/18 05:49:17;;;;;;;7.18;3.08;;;;;;;;;;4987762;28;20082;-57
2022/04/18 05:51:45;;;;;;;6.20;2.30;;;;;;;;;;4985006;28;20065;-55
2022/04/18 05:54:12;;;;;;;7.40;3.55;;;;;;;;;;4991502;28;20049;-59
2022/04/18 05:56:39;;;;;;;10.25;3.60;;;;;;;;;;4981855;28;20058;-59
2022/04/18 05:59:05;;;;;;;9.52;3.97;;;;;;;;;;4990388;28;20050;-55
2022/04/18 06:01:32;;;;;;;6.95;2.88;;;;;;;;;;5002077;28;20046;-53
2022/04/18 06:03:59;;;;;;;6.47;2.90;;;;;;;;;;4989235;28;20136;-62
2022/04/18 06:06:26;;;;;;;7.57;3.15;;;;;;;;;;4996242;28;20054;-59
2022/04/18 06:08:54;;;;;;;8.30;3.10;;;;;;;;;;4992869;28;20061;-51
2022/04/18 06:11:20;;;;;;;6.38;3.10;;;;;;;;;;5007439;28;20054;-57
2022/04/18 06:13:47;;;;;;;9.95;2.60;;;;;;;;;;4994908;28;20062;-58
2022/04/18 06:16:14;;;;;;;7.32;2.67;;;;;;;;;;4985434;28;20049;-55
2022/04/18 06:18:40;;;;;;;5.95;2.55;;;;;;;;;;4992583;28;20058;-61
2022/04/18 06:21:07;;;;;;;7.10;2.75;;;;;;;;;;4986108;28;20056;-56
2022/04/18 06:23:33;;;;;;;6.82;2.88;;;;;;;;;;4992867;28;20046;-61
2022/04/18 06:26:08;;;;;;;7.60;3.10;;;;;;;;;;4986120;28;20054;-61
2022/04/18 06:28:34;;;;;;;12.88;3.30;;;;;;;;;;5011006;28;20054;-53
2022/04/18 06:31:01;;;;;;;10.52;2.95;;;;;;;;;;4993730;28;20046;-65
2022/04/18 06:33:29;;;;;;;7.97;3.50;;;;;;;;;;4989456;28;20080;-61
2022/04/18 06:35:56;;;;;;;7.27;2.80;;;;;;;;;;4991355;28;20136;-58
2022/04/18 06:38:24;;;;;;;8.50;3.85;;;;;;;;;;4989138;28;20163;-57
2022/04/18 06:40:50;;;;;;;11.15;3.05;;;;;;;;;;4992256;28;20140;-58
2022/04/18 06:43:18;;;;;;;8.07;3.63;;;;;;;;;;4989212;28;20057;-57
2022/04/18 06:45:45;;;;;;;8.88;3.83;;;;;;;;;;4990587;28;20062;-64
2022/04/18 06:48:12;;;;;;;8.40;3.67;;;;;;;;;;4985902;28;20148;-59
2022/04/18 06:50:39;;;;;;;10.90;4.28;;;;;;;;;;4992613;28;20054;-60
2022/04/18 06:53:05;;;;;;;5.22;2.58;;;;;;;;;;4985923;28;20054;-55
2022/04/18 06:56:58;;;;;;;5.82;3.25;;;;;;;;;;4992211;28;20057;-64
2022/04/18 06:58:19;;;;;;;8.25;3.35;;;;;;;;;;4986501;28;20125;-61
2022/04/18 07:00:46;;;;;;;7.97;3.58;;;;;;;;;;4993417;28;20064;-59
2022/04/18 07:03:13;;;;;;;13.00;3.63;;;;;;;;;;4985098;28;20081;-61
2022/04/18 07:05:40;;;;;;;6.70;2.90;;;;;;;;;;4989522;28;20060;-59
2022/04/18 07:08:06;;;;;;;7.05;3.05;;;;;;;;;;4987889;28;20046;-57
2022/04/18 07:10:33;;;;;;;6.57;2.72;;;;;;;;;;4991753;28;20089;-63
2022/04/18 07:12:59;;;;;;;6.70;2.70;;;;;;;;;;4986450;28;20057;-54
2022/04/18 07:15:29;;;;;;;7.45;3.22;;;;;;;;;;5007546;28;20050;-59
2022/04/18 07:17:55;;;;;;;8.65;3.38;;;;;;;;;;4986425;28;20054;-57
2022/04/18 07:20:22;;;;;;;7.78;3.78;;;;;;;;;;5009660;28;20050;-56
2022/04/18 07:22:49;;;;;;;6.72;3.10;;;;;;;;;;4991744;28;20062;-60
2022/04/18 07:25:16;;;;;;;5.68;2.67;;;;;;;;;;4983550;28;20057;-57
2022/04/18 07:27:44;;;;;;;6.18;2.70;;;;;;;;;;4991620;28;20064;-61
2022/04/18 07:30:11;;;;;;;7.22;3.55;;;;;;;;;;4988577;28;20141;-60
2022/04/18 07:32:40;;;;;;;6.43;2.88;;;;;;;;;;4987575;28;20073;-58
2022/04/18 07:35:09;;;;;;;8.55;3.22;;;;;;;;;;5002383;28;20108;-61
2022/04/18 07:37:35;;;;;;;6.88;3.63;;;;;;;;;;4991698;28;20109;-61
2022/04/18 07:40:02;;;;;;;11.23;3.75;;;;;;;;;;4983073;28;20093;-61
2022/04/18 07:42:28;;;;;;;8.27;3.58;;;;;;;;;;4990281;28;20120;-62
2022/04/18 07:44:55;;;;;;;8.70;3.17;;;;;;;;;;4988362;28;20061;-58
2022/04/18 07:47:22;;;;;;;7.90;3.72;;;;;;;;;;4992588;28;20108;-60
2022/04/18 07:49:50;;;;;;;7.93;3.40;;;;;;;;;;4991536;28;20077;-62
2022/04/18 07:52:16;;;;;;;7.55;3.50;;;;;;;;;;5001728;28;20058;-63
2022/04/18 07:54:43;;;;;;;6.38;3.00;;;;;;;;;;4985366;28;20049;-58
2022/04/18 07:57:09;;;;;;;8.48;3.50;;;;;;;;;;4992153;28;20069;-62
2022/04/18 07:59:36;;;;;;;7.88;3.25;;;;;;;;;;4986094;28;20053;-63
2022/04/18 08:02:08;;;;;;;12.88;5.10;;;;;;;;;;4992200;28;20050;-64
2022/04/18 08:04:38;;;;;;;6.88;3.20;;;;;;;;;;4993046;28;20057;-61
2022/04/18 08:07:08;;;;;;;8.73;3.90;;;;;;;;;;4985027;28;20136;-59
2022/04/18 08:09:35;;;;;;;6.03;2.92;;;;;;;;;;4988996;28;20137;-58
2022/04/18 08:12:02;;;;;;;13.55;4.10;;;;;;;;;;4985447;28;20053;-57
2022/04/18 08:14:29;;;;;;;7.43;2.80;;;;;;;;;;4990220;28;20049;-58
2022/04/18 08:16:56;;;;;;;8.80;2.73;;;;;;;;;;4981727;28;20065;-62
2022/04/18 08:19:23;;;;;;;10.77;3.40;;;;;;;;;;5003849;28;20065;-55
2022/04/18 08:21:50;;;;;;;5.95;3.00;;;;;;;;;;4993896;28;20045;-60
2022/04/18 08:24:18;;;;;;;7.95;3.10;;;;;;;;;;5008793;28;20050;-65
2022/04/18 08:26:47;;;;;;;;;;;;;;;;;;4986197;28;20125;-64
2022/04/18 08:29:13;;;;;;;5.30;2.58;;;;;;;;;;4972052;28;19934;-65
2022/04/18 08:31:40;;;;;;;8.27;2.97;;;;;;;;;;4973566;28;20057;-63
2022/04/18 08:34:08;;;;;;;6.53;2.25;;;;;;;;;;4991449;28;20042;-60
2022/04/18 08:36:35;;;;;;;7.03;2.63;;;;;;;;;;4975137;28;20352;-64
2022/04/18 08:39:01;;;;;;;6.38;2.75;;;;;;;;;;4992960;28;20041;-67
2022/04/18 08:41:35;;;;;;;7.38;2.10;;;;;;;;;;4986218;28;20056;-60
2022/04/18 08:44:03;;;;;;;6.25;2.55;;;;;;;;;;4991051;28;20065;-64
2022/04/18 08:46:30;;;;;;;4.38;1.90;;;;;;;;;;4985117;28;20124;-65
2022/04/18 08:54:28;;;;;;;7.93;2.05;;;;;;;;;;4988819;28;20057;-65
2022/04/18 08:56:58;;;;;;;6.40;2.28;;;;;;;;;;4984702;28;20057;-67
2022/04/18 08:59:24;;;;;;;4.88;2.10;;;;;;;;;;4989803;28;20054;-66
2022/04/18 09:01:52;;;;;;;8.80;2.13;;;;;;;;;;4990195;28;20112;-66
2022/04/18 09:04:22;;;;;;;5.50;2.20;;;;;;;;;;4968891;28;20084;-65
2022/04/18 09:06:48;;;;;;;4.18;2.00;;;;;;;;;;4985224;28;20061;-66
2022/04/18 09:09:15;;;;;;;7.03;2.30;;;;;;;;;;4985873;28;20050;-66
2022/04/18 09:11:48;;;;;;;6.15;2.15;;;;;;;;;;4990530;28;20137;-64
2022/04/18 09:14:16;;;;;;;5.32;2.30;;;;;;;;;;4984705;28;20073;-66
2022/04/18 09:16:48;;;;;;;6.47;2.72;;;;;;;;;;4991162;28;20056;-68
2022/04/18 09:19:16;;;;;;;5.53;2.50;;;;;;;;;;5011595;28;20054;-66
2022/04/18 09:21:43;;;;;;;5.15;2.10;;;;;;;;;;5023109;28;20160;-68
2022/04/18 09:24:31;;;;;;;5.65;2.05;;;;;;;;;;4984630;28;20054;-66
2022/04/18 09:26:58;;;;;;;8.13;2.22;;;;;;;;;;5007622;28;20073;-66
2022/04/18 09:29:31;;;;;;;4.50;2.28;;;;;;;;;;4973343;28;20142;-66
2022/04/18 09:31:59;;;;;;;6.10;2.38;;;;;;;;;;4987549;28;20125;-68
2022/04/18 09:34:26;;;;;;;4.53;2.28;;;;;;;;;;5001213;28;20136;-66
2022/04/18 09:37:08;;;;;;;5.43;2.20;;;;;;;;;;4994337;28;20076;-67
2022/04/18 09:39:36;;;;;;;6.30;2.40;;;;;;;;;;4979081;28;20130;-66
2022/04/18 09:42:09;;;;;;;5.45;2.03;;;;;;;;;;4976452;28;20056;-66
2022/04/18 09:44:45;;;;;;;4.30;1.90;;;;;;;;;;4977607;28;20042;-67
2022/04/18 09:47:17;;;;;;;4.65;2.00;;;;;;;;;;4976398;28;20056;-67
2022/04/18 09:49:44;;;;;;;5.97;1.92;;;;;;;;;;4989918;28;20041;-66
2022/04/18 09:52:12;;;;;;;4.40;2.10;;;;;;;;;;4987951;28;20064;-66
2022/04/18 09:54:41;;;;;;;6.60;2.20;;;;;;;;;;4989941;28;20042;-66
2022/04/18 09:57:08;;;;;;;6.70;2.50;;;;;;;;;;4996253;28;20054;-67
2022/04/18 09:59:34;;;;;;;5.15;2.20;;;;;;;;;;5004583;28;20046;-66
2022/04/18 10:02:03;;;;;;;5.53;2.25;;;;;;;;;;4994537;28;20046;-67
2022/04/18 10:04:31;;;;;;;5.55;2.15;;;;;;;;;;5004687;28;20053;-67
2022/04/18 10:06:57;;;;;;;6.70;2.35;;;;;;;;;;4993385;28;20065;-67
2022/04/18 10:09:24;;;;;;;4.82;2.47;;;;;;;;;;4993370;28;20058;-67
2022/04/18 10:11:52;;;;;;;9.07;3.05;;;;;;;;;;4988070;28;20073;-67
2022/04/18 10:14:19;;;;;;;6.22;3.05;;;;;;;;;;4995458;28;20132;-69
2022/04/18 10:16:46;;;;;;;6.60;2.83;;;;;;;;;;4988356;28;20206;-68
2022/04/18 10:19:21;;;;;;;5.07;2.45;;;;;;;;;;4991799;28;20050;-68
2022/04/18 10:21:52;;;;;;;6.10;2.40;;;;;;;;;;4987218;28;20046;-67
2022/04/18 10:24:41;;;;;;;6.70;2.80;;;;;;;;;;4992523;28;20074;-67
2022/04/18 10:27:26;;;;;;;8.88;2.72;;;;;;;;;;4986534;28;20046;-68
2022/04/18 10:29:54;;;;;;;5.10;2.35;;;;;;;;;;4991746;28;20053;-68
2022/04/18 10:32:22;;;;;;;5.47;2.57;;;;;;;;;;4983984;28;20054;-68
2022/04/18 10:34:52;;;;;;;4.10;2.30;;;;;;;;;;4994018;28;20663;-68
2022/04/18 10:37:25;;;;;;;4.68;2.28;;;;;;;;;;4992853;28;20052;-69
2022/04/18 10:39:59;;;;;;;4.75;2.38;;;;;;;;;;4992437;28;20049;-68
2022/04/18 10:42:29;;;;;;;8.23;2.92;;;;;;;;;;4982170;28;20058;-67
2022/04/18 10:45:02;;;;;;;5.22;2.67;;;;;;;;;;4972343;28;20060;-67
2022/04/18 10:47:43;;;;;;;7.57;2.47;;;;;;;;;;4988466;28;20051;-68
2022/04/18 10:50:18;;;;;;;6.22;2.50;;;;;;;;;;4989719;28;20046;-69
2022/04/18 10:53:00;;;;;;;6.57;2.90;;;;;;;;;;4985387;28;20058;-69
2022/04/18 10:55:26;;;;;;;5.20;2.65;;;;;;;;;;4990976;28;20053;-67
2022/04/18 10:58:10;;;;;;;5.18;2.30;;;;;;;;;;5002704;28;20054;-74
2022/04/18 11:00:47;;;;;;;5.82;2.70;;;;;;;;;;4991513;28;20053;-66
2022/04/18 11:03:14;;;;;;;7.68;3.58;;;;;;;;;;4973971;28;20058;-67
2022/04/18 11:05:42;;;;;;;5.43;2.38;;;;;;;;;;5001807;28;20054;-64
2022/04/18 11:08:23;;;;;;;7.47;2.67;;;;;;;;;;5002554;28;20050;-67
2022/04/18 11:10:50;;;;;;;5.70;2.38;;;;;;;;;;4992549;28;20058;-65
2022/04/18 11:13:16;;;;;;;5.10;2.42;;;;;;;;;;4977256;28;20065;-63
2022/04/18 11:15:49;;;;;;;7.35;2.22;;;;;;;;;;4973401;28;20054;-63
2022/04/18 11:18:28;;;;;;;10.23;2.80;;;;;;;;;;4986379;28;20117;-68
2022/04/18 11:20:54;;;;;;;;;;;;;;;;;;5004672;28;20056;-65
2022/04/18 11:23:23;;;;;;;7.68;2.67;;;;;;;;;;4981204;28;20009;-63
2022/04/18 11:25:49;;;;;;;;;;;;;;;;;;4995984;28;20133;-63
2022/04/18 11:28:17;;;;;;;5.95;2.17;;;;;;;;;;4967655;28;19932;-63
2022/04/18 11:30:43;;;;;;;5.13;2.78;;;;;;;;;;4977989;28;20054;-62
2022/04/18 11:33:10;;;;;;;8.18;2.95;;;;;;;;;;4973725;28;20046;-63
2022/04/18 11:35:38;;;;;;;9.32;2.55;;;;;;;;;;4997451;28;20053;-63
2022/04/18 11:38:07;;;;;;;7.85;2.45;;;;;;;;;;4973438;28;20054;-63
2022/04/18 11:40:38;;;;;;;7.53;2.95;;;;;;;;;;4984235;28;20077;-64
2022/04/18 11:43:12;;;;;;;6.38;2.65;;;;;;;;;;4984313;28;20115;-63
2022/04/18 11:45:40;;;;;;;5.45;2.60;;;;;;;;;;4974381;28;20065;-63
2022/04/18 11:48:06;;;;;;;6.57;2.90;;;;;;;;;;4978639;28;20205;-63
2022/04/18 11:50:36;;;;;;;5.65;2.80;;;;;;;;;;4966725;28;20050;-62
2022/04/18 11:53:04;;;;;;;4.88;2.30;;;;;;;;;;4975536;28;20050;-62
2022/04/18 11:55:33;;;;;;;4.93;2.55;;;;;;;;;;4990532;28;20061;-62
2022/04/18 11:58:01;;;;;;;7.07;2.70;;;;;;;;;;4982369;28;20054;-63
2022/04/18 12:08:44;;;;;;;5.10;2.53;;;;;;;;;;4984727;28;20053;-62
2022/04/18 12:11:11;;;;;;;5.53;2.58;;;;;;;;;;4976521;28;20050;-63
2022/04/18 12:13:42;;;;;;;9.00;2.35;;;;;;;;;;4981812;28;20058;-63
2022/04/18 12:16:09;;;;;;;4.20;2.05;;;;;;;;;;4971677;28;20104;-63
2022/04/18 12:18:35;;;;;;;6.38;2.58;;;;;;;;;;4979579;28;20069;-63
2022/04/18 12:21:02;;;;;;;5.20;2.13;;;;;;;;;;4972634;28;20050;-63
2022/04/18 12:23:29;;;;;;;3.20;2.03;;;;;;;;;;4981302;28;20092;-62
2022/04/18 12:25:57;;;;;;;3.95;2.10;;;;;;;;;;4973970;28;20050;-62
2022/04/18 12:28:24;;;;;;;5.07;2.42;;;;;;;;;;4979505;28;20053;-62
2022/04/18 12:30:52;;;;;;;6.38;2.50;;;;;;;;;;4967768;28;20053;-62
2022/04/18 12:33:20;;;;;;;9.43;2.60;;;;;;;;;;4981943;28;20050;-62
2022/04/18 12:35:48;;;;;;;6.63;2.35;;;;;;;;;;5001257;28;20056;-62
2022/04/18 12:38:15;;;;;;;6.67;2.20;;;;;;;;;;4989899;28;20093;-62
2022/04/18 12:40:43;;;;;;;5.90;1.90;;;;;;;;;;5001217;28;20168;-62
2022/04/18 12:43:10;;;;;;;5.72;2.92;;;;;;;;;;4980008;28;20065;-62
2022/04/18 12:45:42;;;;;;;4.38;2.17;;;;;;;;;;4952372;28;20050;-62
2022/04/18 12:48:10;;;;;;;5.35;2.53;;;;;;;;;;4990832;28;20057;-62
2022/04/18 12:50:37;;;;;;;9.88;3.97;;;;;;;;;;4991204;28;20136;-62
2022/04/18 12:53:04;;;;;;;6.82;2.20;;;;;;;;;;4984530;28;20058;-62
2022/04/18 12:55:31;;;;;;;4.15;2.30;;;;;;;;;;4991739;28;20050;-62
2022/04/18 12:57:58;;;;;;;8.02;3.60;;;;;;;;;;4984191;28;20054;-62
2022/04/18 13:00:25;;;;;;;5.57;2.83;;;;;;;;;;4990811;28;20046;-62
2022/04/18 13:02:58;;;;;;;5.03;2.20;;;;;;;;;;4975552;28;20053;-62
2022/04/18 13:05:27;;;;;;;3.88;1.98;;;;;;;;;;4995790;28;20049;-61
2022/04/18 13:07:57;;;;;;;6.03;2.40;;;;;;;;;;4975630;28;20049;-62
2022/04/18 13:10:27;;;;;;;7.65;2.40;;;;;;;;;;4983534;28;20053;-62
2022/04/18 13:12:59;;;;;;;4.93;2.03;;;;;;;;;;4978431;28;20057;-62
2022/04/18 13:15:28;;;;;;;4.80;2.58;;;;;;;;;;4983930;28;20053;-62
2022/04/18 13:18:04;;;;;;;4.72;1.90;;;;;;;;;;4996659;28;20058;-63
2022/04/18 13:20:33;;;;;;;3.38;1.73;;;;;;;;;;4989154;28;20054;-62
2022/04/18 13:22:59;;;;;;;5.28;2.20;;;;;;;;;;4995329;28;20053;-62
2022/04/18 13:25:29;;;;;;;6.05;2.30;;;;;;;;;;4985893;28;20042;-62
2022/04/18 13:27:56;;;;;;;6.45;2.60;;;;;;;;;;4978544;28;20049;-62
2022/04/18 13:30:23;;;;;;;4.93;2.35;;;;;;;;;;4989985;28;20108;-62
2022/04/18 13:32:50;;;;;;;5.40;2.22;;;;;;;;;;4981801;28;20046;-63
2022/04/18 13:35:18;;;;;;;5.78;2.40;;;;;;;;;;4982357;28;20046;-62
2022/04/18 13:37:47;;;;;;;6.35;2.17;;;;;;;;;;4970563;28;20149;-62
2022/04/18 13:40:13;;;;;;;;;;;;;;;;;;4994642;28;20148;-62
2022/04/18 13:42:40;;;;;;;6.05;2.28;;;;;;;;;;4988308;28;20045;-62
2022/04/18 13:45:08;;;;;;;3.65;2.22;;;;;;;;;;5003462;28;20070;-62
2022/04/18 13:47:35;;;;;;;7.95;1.95;;;;;;;;;;4993979;28;20054;-62
2022/04/18 13:50:02;;;;;;;4.22;1.90;;;;;;;;;;4987062;28;20121;-62
2022/04/18 13:52:29;;;;;;;2.88;1.63;;;;;;;;;;4982053;28;20065;-62
2022/04/18 13:54:57;;;;;;;5.30;2.40;;;;;;;;;;4979788;28;20054;-63
2022/04/18 13:57:23;;;;;;;6.00;2.17;;;;;;;;;;4993416;28;20073;-62
2022/04/18 13:59:51;;;;;;;4.75;2.20;;;;;;;;;;4983776;28;20065;-63
2022/04/18 14:02:18;;;;;;;3.00;1.73;;;;;;;;;;4991181;28;20133;-63
2022/04/18 14:04:45;;;;;;;4.47;2.00;;;;;;;;;;4987430;28;20038;-63
2022/04/18 14:07:12;;;;;;;7.13;2.88;;;;;;;;;;5009161;28;20116;-62
2022/04/18 14:09:39;;;;;;;8.95;2.80;;;;;;;;;;4986932;28;20164;-62
2022/04/18 14:12:07;;;;;;;5.80;2.30;;;;;;;;;;4990985;28;20053;-63
2022/04/18 14:20:24;;;;;;;4.10;2.10;;;;;;;;;;5007038;28;20054;-63
2022/04/18 14:22:51;;;;;;;5.53;2.05;;;;;;;;;;5006935;28;20084;-62
2022/04/18 14:25:19;;;;;;;4.50;2.40;;;;;;;;;;4979908;28;20045;-61
2022/04/18 14:27:47;;;;;;;4.63;2.23;;;;;;;;;;4989764;28;20061;-62
2022/04/18 14:30:14;;;;;;;4.85;2.28;;;;;;;;;;4972186;28;20058;-61
2022/04/18 14:32:41;;;;;;;4.60;1.95;;;;;;;;;;4993454;28;20184;-60
2022/04/18 14:35:09;;;;;;;4.85;2.10;;;;;;;;;;4985790;28;20087;-62
2022/04/18 14:37:37;;;;;;;3.78;1.85;;;;;;;;;;4992966;28;20049;-62
2022/04/18 14:40:05;;;;;;;4.07;1.70;;;;;;;;;;4989704;28;20077;-62
2022/04/18 14:42:31;;;;;;;4.22;1.85;;;;;;;;;;4999978;28;20069;-62
2022/04/18 14:45:00;;;;;;;4.18;1.80;;;;;;;;;;4989050;28;20054;-62
2022/04/18 14:47:26;;;;;;;3.78;2.00;;;;;;;;;;5002281;28;20056;-62
2022/04/18 14:49:53;;;;;;;4.55;1.70;;;;;;;;;;5008657;28;20054;-61
2022/04/18 14:52:22;;;;;;;4.75;2.17;;;;;;;;;;4987042;28;20062;-60
2022/04/18 14:54:50;;;;;;;3.97;1.70;;;;;;;;;;4992773;28;20061;-61
2022/04/18 14:57:17;;;;;;;3.90;1.87;;;;;;;;;;4987591;28;20064;-60
2022/04/18 14:59:47;;;;;;;4.35;1.67;;;;;;;;;;4992382;28;20395;-60
2022/04/18 15:02:16;;;;;;;7.07;1.70;;;;;;;;;;4976203;28;20062;-61
2022/04/18 15:04:43;;;;;;;3.80;1.70;;;;;;;;;;4973197;28;20095;-60
2022/04/18 15:07:11;;;;;;;4.55;1.58;;;;;;;;;;4990794;28;20148;-61
2022/04/18 15:09:38;;;;;;;4.15;2.10;;;;;;;;;;4973934;28;20054;-62
2022/04/18 15:12:06;;;;;;;2.70;1.67;;;;;;;;;;4969367;28;20050;-61
2022/04/18 15:14:34;;;;;;;8.70;1.85;;;;;;;;;;4991941;28;20054;-60
2022/04/18 15:17:02;;;;;;;3.67;1.75;;;;;;;;;;4979813;28;20054;-59
2022/04/18 15:19:30;;;;;;;4.65;1.33;;;;;;;;;;4988561;28;20054;-60